createdAt,value
2023-03-29T00:02:34.331Z,53.87
2023-03-29T00:05:41.141Z,53.64
2023-03-29T00:08:46.139Z,53.66
2023-03-29T00:11:51.354Z,53.45
2023-03-29T00:14:55.276Z,53.64
2023-03-29T00:17:59.337Z,53.43
2023-03-29T00:21:03.313Z,53.85
2023-03-29T00:24:07.963Z,53.92
2023-03-29T00:27:13.124Z,53.83
2023-03-29T00:30:17.519Z,53.99
2023-03-29T00:33:22.837Z,53.87
2023-03-29T00:36:27.827Z,54.11
2023-03-29T00:39:31.996Z,54.03
2023-03-29T00:42:37.517Z,54.83
2023-03-29T00:45:42.276Z,54.48
2023-03-29T00:48:46.593Z,54.54
2023-03-29T00:51:50.700Z,54.08
2023-03-29T00:54:59.769Z,53.98
2023-03-29T00:58:13.127Z,54.03
2023-03-29T01:01:26.023Z,54.65
2023-03-29T01:04:36.506Z,54.70
2023-03-29T01:07:53.678Z,54.46
2023-03-29T01:11:06.784Z,54.79
2023-03-29T01:14:23.675Z,54.94
2023-03-29T01:17:27.562Z,54.42
2023-03-29T01:21:03.374Z,54.45
2023-03-29T01:24:53.081Z,54.89
2023-03-29T01:28:05.114Z,54.26
2023-03-29T01:31:16.001Z,54.46
2023-03-29T01:34:27.334Z,54.47
2023-03-29T01:37:39.671Z,54.59
2023-03-29T01:40:43.936Z,54.89
2023-03-29T01:43:57.945Z,54.84
2023-03-29T01:47:12.665Z,55.20
2023-03-29T01:50:23.301Z,54.75
2023-03-29T01:53:37.618Z,55.05
2023-03-29T01:56:48.385Z,55.11
2023-03-29T01:59:57.784Z,55.28
2023-03-29T02:03:10.525Z,55.54
2023-03-29T02:06:21.938Z,55.32
2023-03-29T02:09:25.533Z,55.33
2023-03-29T02:12:29.879Z,55.59
2023-03-29T02:15:35.172Z,55.73
2023-03-29T02:18:41.320Z,55.26
2023-03-29T02:21:55.109Z,55.82
2023-03-29T02:25:04.753Z,55.97
2023-03-29T02:28:09.039Z,55.86
2023-03-29T02:31:24.134Z,56.32
2023-03-29T02:34:37.692Z,56.07
2023-03-29T02:37:49.520Z,56.40
2023-03-29T02:40:55.293Z,56.52
2023-03-29T02:44:04.214Z,57.12
2023-03-29T02:47:20.001Z,57.12
2023-03-29T02:50:26.647Z,56.47
2023-03-29T02:53:41.293Z,56.61
2023-03-29T02:56:47.756Z,57.16
2023-03-29T02:59:51.575Z,56.72
2023-03-29T03:02:57.467Z,56.66
2023-03-29T03:06:02.677Z,56.50
2023-03-29T03:09:09.864Z,56.79
2023-03-29T03:12:16.348Z,56.87
2023-03-29T03:15:20.947Z,57.50
2023-03-29T03:18:26.069Z,58.04
2023-03-29T03:21:29.826Z,57.33
2023-03-29T03:24:33.722Z,57.89
2023-03-29T03:27:38.098Z,57.87
2023-03-29T03:30:41.769Z,57.91
2023-03-29T03:33:56.662Z,57.47
2023-03-29T03:37:13.121Z,58.05
2023-03-29T03:40:17.447Z,57.70
2023-03-29T03:43:21.473Z,58.29
2023-03-29T03:46:29.675Z,57.67
2023-03-29T03:49:35.904Z,58.47
2023-03-29T03:52:39.836Z,58.48
2023-03-29T03:55:49.116Z,58.29
2023-03-29T03:58:58.255Z,58.23
2023-03-29T04:02:03.144Z,58.40
2023-03-29T04:05:08.990Z,58.57
2023-03-29T04:08:16.670Z,58.67
2023-03-29T04:11:39.147Z,59.08
2023-03-29T04:14:43.586Z,58.82
2023-03-29T04:17:53.651Z,58.73
2023-03-29T04:21:04.178Z,59.37
2023-03-29T04:24:10.608Z,58.79
2023-03-29T04:27:17.093Z,58.75
2023-03-29T04:30:21.339Z,58.93
2023-03-29T04:33:51.673Z,58.77
2023-03-29T04:36:58.770Z,59.00
2023-03-29T04:40:02.578Z,59.25
2023-03-29T04:43:14.418Z,59.43
2023-03-29T04:46:28.590Z,59.23
2023-03-29T04:49:42.607Z,59.93
2023-03-29T04:52:55.671Z,59.59
2023-03-29T04:55:59.952Z,59.76
2023-03-29T04:59:29.281Z,59.17
2023-03-29T05:02:33.325Z,59.04
2023-03-29T05:05:37.055Z,59.59
2023-03-29T05:08:42.483Z,59.35
2023-03-29T05:11:54.619Z,59.28
2023-03-29T05:14:59.941Z,59.35
2023-03-29T05:18:05.710Z,59.22
2023-03-29T05:21:09.521Z,58.99
2023-03-29T05:24:16.694Z,58.92
2023-03-29T05:27:45.905Z,58.86
2023-03-29T05:31:02.480Z,58.91
2023-03-29T05:34:07.614Z,59.20
2023-03-29T05:37:16.318Z,58.96
2023-03-29T05:40:31.435Z,59.68
2023-03-29T05:43:49.936Z,59.38
2023-03-29T05:46:54.444Z,58.75
2023-03-29T05:49:58.482Z,59.10
2023-03-29T05:53:02.126Z,58.85
2023-03-29T05:56:10.781Z,59.05
2023-03-29T05:59:14.903Z,59.10
2023-03-29T06:02:19.532Z,58.91
2023-03-29T06:05:29.374Z,58.85
2023-03-29T06:08:37.740Z,58.96
2023-03-29T06:12:06.506Z,58.78
2023-03-29T06:15:17.102Z,58.84
2023-03-29T06:18:24.626Z,58.40
2023-03-29T06:21:28.574Z,58.70
2023-03-29T06:24:32.508Z,57.93
2023-03-29T06:27:43.142Z,58.34
2023-03-29T06:30:49.068Z,57.78
2023-03-29T06:33:52.893Z,57.51
2023-03-29T06:37:23.290Z,56.72
2023-03-29T06:40:37.402Z,56.27
2023-03-29T06:43:42.538Z,56.68
2023-03-29T06:46:51.828Z,56.20
2023-03-29T06:49:55.642Z,55.33
2023-03-29T06:53:11.578Z,54.88
2023-03-29T06:56:17.608Z,54.78
2023-03-29T06:59:33.399Z,53.93
2023-03-29T07:02:52.216Z,53.33
2023-03-29T07:06:04.084Z,53.41
2023-03-29T07:09:10.564Z,52.95
2023-03-29T07:12:38.312Z,52.39
2023-03-29T07:15:45.248Z,51.10
2023-03-29T07:18:51.711Z,51.10
2023-03-29T07:22:18.561Z,51.68
2023-03-29T07:25:30.941Z,51.69
2023-03-29T07:28:37.481Z,51.24
2023-03-29T07:31:43.868Z,51.05
2023-03-29T07:35:10.166Z,50.78
2023-03-29T07:38:15.541Z,50.70
2023-03-29T07:41:24.793Z,49.58
2023-03-29T07:44:35.637Z,49.41
2023-03-29T07:47:41.097Z,48.65
2023-03-29T07:50:45.207Z,48.21
2023-03-29T07:53:49.738Z,47.47
2023-03-29T07:57:08.158Z,48.04
2023-03-29T08:00:20.273Z,48.32
2023-03-29T08:03:40.589Z,46.04
2023-03-29T08:06:44.381Z,47.17
2023-03-29T08:09:48.586Z,46.36
2023-03-29T08:12:53.672Z,47.00
2023-03-29T08:16:05.889Z,46.92
2023-03-29T08:19:16.635Z,46.54
2023-03-29T08:22:38.916Z,46.32
2023-03-29T08:25:56.308Z,46.32
2023-03-29T08:29:00.535Z,45.74
2023-03-29T08:32:04.782Z,45.88
2023-03-29T08:35:11.308Z,45.60
2023-03-29T08:38:33.815Z,45.33
2023-03-29T08:42:00.126Z,45.54
2023-03-29T08:45:20.482Z,45.11
2023-03-29T08:48:31.074Z,45.15
2023-03-29T08:51:43.999Z,44.49
2023-03-29T08:54:51.896Z,45.56
2023-03-29T08:58:09.445Z,45.71
2023-03-29T09:01:14.281Z,45.19
2023-03-29T09:04:31.673Z,45.06
2023-03-29T09:07:48.533Z,45.14
2023-03-29T09:11:17.976Z,43.90
2023-03-29T09:15:00.845Z,45.05
2023-03-29T09:18:21.249Z,42.48
2023-03-29T09:21:34.679Z,44.66
2023-03-29T09:25:07.444Z,43.85
2023-03-29T09:28:20.545Z,44.92
2023-03-29T09:31:37.233Z,45.10
2023-03-29T09:34:50.451Z,42.65
2023-03-29T09:37:57.831Z,43.05
2023-03-29T09:41:24.708Z,43.47
2023-03-29T09:44:34.428Z,43.39
2023-03-29T09:47:51.120Z,43.59
2023-03-29T09:50:55.250Z,43.01
2023-03-29T09:54:00.701Z,41.98
2023-03-29T09:57:21.228Z,41.97
2023-03-29T10:00:26.046Z,43.05
2023-03-29T10:03:32.243Z,41.84
2023-03-29T10:06:50.440Z,41.73
2023-03-29T10:09:57.145Z,40.87
2023-03-29T10:13:13.455Z,41.06
2023-03-29T10:16:23.823Z,42.11
2023-03-29T10:19:34.514Z,41.52
2023-03-29T10:22:41.145Z,41.98
2023-03-29T10:25:45.660Z,40.47
2023-03-29T10:28:57.082Z,40.24
2023-03-29T10:32:00.850Z,40.11
2023-03-29T10:35:11.811Z,39.83
2023-03-29T10:38:19.701Z,39.73
2023-03-29T10:41:25.021Z,40.14
2023-03-29T10:44:34.973Z,38.27
2023-03-29T10:47:38.779Z,38.69
2023-03-29T10:50:43.513Z,38.70
2023-03-29T10:53:47.579Z,38.71
2023-03-29T10:56:58.081Z,37.92
2023-03-29T11:00:17.635Z,37.00
2023-03-29T11:03:52.156Z,37.51
2023-03-29T11:07:22.529Z,36.64
2023-03-29T11:10:41.982Z,35.77
2023-03-29T11:13:59.799Z,36.81
2023-03-29T11:17:30.027Z,36.15
2023-03-29T11:20:44.584Z,36.74
2023-03-29T11:24:01.824Z,35.77
2023-03-29T11:27:27.656Z,36.59
2023-03-29T11:30:46.048Z,36.21
2023-03-29T11:34:08.472Z,36.82
2023-03-29T11:37:24.741Z,37.05
2023-03-29T11:40:50.515Z,36.09
2023-03-29T11:44:03.657Z,37.45
2023-03-29T11:47:15.116Z,36.50
2023-03-29T11:50:27.504Z,36.64
2023-03-29T11:53:40.674Z,36.12
2023-03-29T11:56:52.225Z,36.15
2023-03-29T12:00:05.246Z,36.34
2023-03-29T12:03:34.058Z,34.95
2023-03-29T12:06:49.386Z,35.58
2023-03-29T12:10:00.223Z,35.67
2023-03-29T12:13:12.580Z,34.98
2023-03-29T12:16:24.128Z,34.39
2023-03-29T12:19:39.643Z,34.96
2023-03-29T12:22:51.049Z,33.09
2023-03-29T12:26:05.385Z,33.04
2023-03-29T12:29:31.947Z,30.31
2023-03-29T12:32:57.516Z,29.39
2023-03-29T12:37:10.431Z,27.94
2023-03-29T12:40:29.051Z,26.65
2023-03-29T12:44:05.298Z,26.24
2023-03-29T12:47:44.668Z,25.80
2023-03-29T12:50:54.018Z,25.89
2023-03-29T12:54:08.468Z,22.31
2023-03-29T12:57:28.166Z,25.14
2023-03-29T13:00:44.302Z,22.17
2023-03-29T13:03:53.052Z,24.11
2023-03-29T13:07:06.094Z,21.66
2023-03-29T13:10:26.476Z,22.06
2023-03-29T13:13:36.711Z,22.58
2023-03-29T13:16:43.073Z,22.98
2023-03-29T13:20:01.563Z,21.54
2023-03-29T13:23:32.884Z,21.37
2023-03-29T13:26:57.332Z,23.64
2023-03-29T13:30:26.756Z,24.22
2023-03-29T13:33:58.255Z,22.60
2023-03-29T13:37:24.215Z,26.40
2023-03-29T13:40:48.121Z,26.49
2023-03-29T13:43:55.832Z,26.03
2023-03-29T13:47:17.505Z,25.99
2023-03-29T13:50:35.754Z,25.28
2023-03-29T13:53:46.870Z,24.51
2023-03-29T13:57:11.182Z,23.09
2023-03-29T14:00:23.112Z,23.22
2023-03-29T14:03:31.926Z,23.91
2023-03-29T14:06:39.520Z,23.96
2023-03-29T14:09:50.403Z,23.21
2023-03-29T14:12:56.645Z,24.29
2023-03-29T14:16:05.350Z,22.99
2023-03-29T14:19:19.397Z,23.20
2023-03-29T14:22:23.408Z,22.99
2023-03-29T14:25:30.357Z,22.56
2023-03-29T14:28:34.944Z,22.40
2023-03-29T14:31:41.930Z,22.66
2023-03-29T14:34:51.121Z,23.03
2023-03-29T14:37:55.064Z,22.82
2023-03-29T14:41:02.054Z,23.06
2023-03-29T14:44:08.211Z,24.06
2023-03-29T14:47:22.174Z,24.62
2023-03-29T14:50:31.585Z,25.01
2023-03-29T14:53:39.029Z,25.59
2023-03-29T14:56:42.909Z,26.52
2023-03-29T14:59:55.741Z,26.54
2023-03-29T15:03:02.962Z,26.80
2023-03-29T15:06:09.137Z,27.27
2023-03-29T15:09:20.297Z,28.09
2023-03-29T15:12:24.406Z,29.40
2023-03-29T15:15:28.784Z,28.99
2023-03-29T15:18:39.940Z,29.46
2023-03-29T15:21:48.848Z,29.40
2023-03-29T15:24:52.613Z,29.59
2023-03-29T15:28:00.957Z,29.14
2023-03-29T15:31:12.891Z,29.24
2023-03-29T15:34:27.921Z,26.16
2023-03-29T15:37:33.566Z,24.72
2023-03-29T15:40:37.351Z,23.71
2023-03-29T15:43:41.542Z,22.71
2023-03-29T15:46:45.561Z,22.04
2023-03-29T15:49:49.432Z,21.50
2023-03-29T15:53:08.619Z,22.53
2023-03-29T15:56:20.336Z,23.24
2023-03-29T15:59:24.467Z,24.35
2023-03-29T16:02:28.694Z,25.68
2023-03-29T16:05:32.706Z,26.59
2023-03-29T16:08:38.206Z,27.10
2023-03-29T16:11:44.407Z,27.55
2023-03-29T16:14:48.001Z,27.83
2023-03-29T16:17:51.841Z,27.69
2023-03-29T16:20:56.958Z,28.03
2023-03-29T16:24:02.994Z,28.15
2023-03-29T16:27:07.001Z,28.75
2023-03-29T16:30:12.906Z,29.57
2023-03-29T16:33:16.742Z,31.00
2023-03-29T16:36:20.647Z,31.93
2023-03-29T16:39:25.635Z,32.89
2023-03-29T16:42:29.301Z,33.32
2023-03-29T16:45:33.123Z,33.45
2023-03-29T16:48:37.365Z,34.33
2023-03-29T16:51:41.133Z,34.25
2023-03-29T16:54:46.916Z,34.51
2023-03-29T16:57:51.272Z,34.62
2023-03-29T17:00:56.215Z,34.90
2023-03-29T17:03:59.925Z,34.89
2023-03-29T17:07:03.764Z,35.39
2023-03-29T17:10:10.719Z,35.39
2023-03-29T17:13:15.078Z,35.48
2023-03-29T17:16:19.132Z,36.16
2023-03-29T17:19:23.482Z,36.14
2023-03-29T17:22:27.829Z,35.89
2023-03-29T17:25:33.024Z,36.64
2023-03-29T17:28:37.302Z,37.20
2023-03-29T17:31:46.951Z,37.24
2023-03-29T17:34:51.606Z,36.87
2023-03-29T17:37:55.837Z,37.70
2023-03-29T17:41:01.276Z,37.83
2023-03-29T17:44:05.355Z,37.86
2023-03-29T17:47:09.395Z,37.88
2023-03-29T17:50:14.346Z,38.79
2023-03-29T17:53:18.245Z,38.49
2023-03-29T17:56:24.434Z,37.96
2023-03-29T17:59:28.530Z,38.63
2023-03-29T18:02:32.746Z,38.72
2023-03-29T18:05:37.830Z,38.79
2023-03-29T18:08:41.994Z,39.28
2023-03-29T18:11:47.447Z,39.90
2023-03-29T18:14:51.826Z,39.97
2023-03-29T18:17:55.934Z,39.75
2023-03-29T18:21:02.654Z,39.91
2023-03-29T18:24:07.190Z,39.38
2023-03-29T18:27:13.207Z,40.61
2023-03-29T18:30:17.432Z,40.95
2023-03-29T18:33:21.458Z,41.25
2023-03-29T18:36:26.447Z,40.95
2023-03-29T18:39:31.992Z,41.21
2023-03-29T18:42:37.660Z,41.43
2023-03-29T18:45:41.812Z,41.40
2023-03-29T18:48:46.309Z,42.02
2023-03-29T18:51:51.747Z,41.95
2023-03-29T18:54:58.379Z,41.76
2023-03-29T18:58:03.612Z,42.09
2023-03-29T19:01:09.760Z,42.61
2023-03-29T19:04:16.376Z,42.62
2023-03-29T19:07:21.043Z,42.77
2023-03-29T19:10:25.631Z,42.29
2023-03-29T19:13:31.039Z,42.37
2023-03-29T19:16:34.939Z,43.15
2023-03-29T19:19:38.867Z,42.54
2023-03-29T19:22:42.543Z,42.39
2023-03-29T19:25:53.673Z,43.11
2023-03-29T19:28:59.018Z,43.23
2023-03-29T19:32:02.671Z,43.15
2023-03-29T19:35:09.655Z,43.69
2023-03-29T19:38:13.821Z,43.23
2023-03-29T19:41:17.612Z,43.71
2023-03-29T19:44:23.628Z,43.83
2023-03-29T19:47:28.181Z,44.23
2023-03-29T19:50:32.726Z,44.21
2023-03-29T19:53:38.712Z,44.67
2023-03-29T19:56:43.122Z,43.98
2023-03-29T19:59:48.664Z,44.27
2023-03-29T20:02:52.539Z,44.73
2023-03-29T20:05:57.046Z,44.74
2023-03-29T20:09:00.578Z,44.93
2023-03-29T20:12:04.934Z,44.97
2023-03-29T20:15:11.893Z,45.03
2023-03-29T20:18:15.820Z,45.23
2023-03-29T20:21:19.607Z,45.57
2023-03-29T20:24:23.988Z,45.04
2023-03-29T20:27:29.532Z,44.99
2023-03-29T20:30:35.111Z,45.13
2023-03-29T20:33:39.337Z,45.70
2023-03-29T20:36:43.860Z,45.99
2023-03-29T20:39:47.721Z,45.17
2023-03-29T20:42:51.506Z,45.53
2023-03-29T20:45:57.157Z,45.88
2023-03-29T20:49:01.600Z,45.68
2023-03-29T20:52:08.628Z,46.33
2023-03-29T20:55:13.533Z,46.25
2023-03-29T20:58:17.139Z,46.20
2023-03-29T21:01:22.411Z,46.63
2023-03-29T21:04:26.688Z,46.65
2023-03-29T21:07:31.304Z,46.84
2023-03-29T21:10:36.617Z,46.56
2023-03-29T21:13:40.815Z,46.98
2023-03-29T21:16:47.443Z,46.54
2023-03-29T21:19:51.972Z,46.88
2023-03-29T21:22:55.970Z,47.09
2023-03-29T21:25:59.833Z,47.18
2023-03-29T21:29:03.600Z,47.68
2023-03-29T21:32:09.048Z,47.62
2023-03-29T21:35:14.036Z,47.10
2023-03-29T21:38:18.922Z,47.40
2023-03-29T21:41:22.377Z,46.84
2023-03-29T21:44:26.980Z,46.74
2023-03-29T21:47:32.245Z,46.72
2023-03-29T21:50:36.310Z,46.87
2023-03-29T21:53:40.077Z,47.41
2023-03-29T21:56:45.505Z,46.81
2023-03-29T21:59:49.277Z,47.16
2023-03-29T22:02:54.448Z,47.34
2023-03-29T22:06:00.505Z,47.09
2023-03-29T22:09:05.158Z,47.14
2023-03-29T22:12:10.696Z,47.46
2023-03-29T22:15:15.099Z,47.01
2023-03-29T22:18:20.909Z,47.59
2023-03-29T22:21:28.313Z,47.38
2023-03-29T22:24:31.811Z,47.65
2023-03-29T22:27:35.655Z,47.76
2023-03-29T22:30:39.166Z,47.35
2023-03-29T22:33:45.116Z,47.32
2023-03-29T22:36:48.725Z,47.86
2023-03-29T22:39:52.568Z,47.71
2023-03-29T22:42:56.204Z,47.53
2023-03-29T22:46:00.152Z,47.01
2023-03-29T22:49:06.245Z,48.64
2023-03-29T22:52:10.415Z,48.44
2023-03-29T22:55:14.228Z,47.42
2023-03-29T22:58:18.136Z,48.73
2023-03-29T23:01:21.809Z,48.46
2023-03-29T23:04:27.228Z,48.07
2023-03-29T23:07:31.250Z,48.71
2023-03-29T23:10:35.480Z,48.60
2023-03-29T23:13:39.219Z,49.43
2023-03-29T23:16:43.321Z,49.43
2023-03-29T23:19:48.647Z,49.52
2023-03-29T23:22:53.005Z,49.06
2023-03-29T23:25:57.884Z,49.32
2023-03-29T23:29:02.334Z,49.41
2023-03-29T23:32:06.580Z,50.21
2023-03-29T23:35:11.825Z,50.22
2023-03-29T23:38:15.868Z,50.97
2023-03-29T23:41:20.371Z,49.96
2023-03-29T23:44:24.337Z,50.85
2023-03-29T23:47:28.779Z,50.39
2023-03-29T23:50:34.135Z,52.06
2023-03-29T23:53:38.256Z,50.92
2023-03-29T23:56:42.070Z,50.61
2023-03-29T23:59:46.219Z,50.68
